Time;durP1;ratioP1;P1;durP2;ratioP2;P2;SDS_P1;SDS_P2;PMS_P1;PMS_P2;Temp;Humidity;BMP_temperature;BMP_pressure;BME280_temperature;BME280_humidity;BME280_pressure;Samples;Min_cycle;Max_cycle;Signal;HPM_P1;HPM_P2
2024/03/17 00:02:21;;;;;;;3.10;2.00;;;;;;;7.86;100.00;98102.09;1225396;75;2926307;-64
2024/03/17 00:04:54;;;;;;;3.25;2.05;;;;;;;7.71;100.00;98106.53;1224472;75;2919407;-64
2024/03/17 00:07:26;;;;;;;3.50;2.30;;;;;;;7.71;100.00;98106.53;1224511;75;2917435;-65
2024/03/17 00:09:59;;;;;;;2.40;1.90;;;;;;;7.71;100.00;98112.00;1223251;75;2953954;-64
2024/03/17 00:12:29;;;;;;;3.60;2.10;;;;;;;7.69;100.00;98106.97;1224934;75;2925711;-63
2024/03/17 00:15:07;;;;;;;2.80;2.15;;;;;;;7.67;100.00;98106.69;1222879;75;2938435;-63
2024/03/17 00:17:37;;;;;;;1.90;1.60;;;;;;;7.52;100.00;98107.63;1224677;75;2936464;-64
2024/03/17 00:20:18;;;;;;;2.00;1.60;;;;;;;7.25;100.00;98119.84;1222634;75;2941310;-64
2024/03/17 00:22:51;;;;;;;5.30;3.40;;;;;;;6.98;100.00;98128.53;1224612;75;2931544;-62
2024/03/17 00:25:23;;;;;;;6.25;3.90;;;;;;;7.01;100.00;98116.75;1209091;75;4063273;-62
2024/03/17 00:27:56;;;;;;;4.90;3.40;;;;;;;7.23;100.00;98119.50;1224531;75;2918003;-61
2024/03/17 00:30:33;;;;;;;3.65;2.70;;;;;;;7.41;100.00;98124.34;1224793;75;2918125;-60
2024/03/17 00:33:03;;;;;;;3.30;2.42;;;;;;;7.43;100.00;98108.31;1199653;75;4892869;-60
2024/03/17 00:35:37;;;;;;;3.00;2.20;;;;;;;7.45;100.00;98105.91;1222991;75;2916696;-63
2024/03/17 00:38:10;;;;;;;3.15;2.25;;;;;;;7.41;100.00;98118.91;1224370;75;2919730;-65
2024/03/17 00:40:45;;;;;;;2.25;1.80;;;;;;;7.41;100.00;98108.03;1223550;75;2937592;-63
2024/03/17 00:43:15;;;;;;;1.85;1.65;;;;;;;7.39;100.00;98113.91;1224482;75;2918977;-62
2024/03/17 00:45:55;;;;;;;2.20;1.90;;;;;;;7.36;100.00;98120.25;1224624;75;2916768;-61
2024/03/17 00:48:26;;;;;;;3.50;2.35;;;;;;;7.39;100.00;98116.63;1224629;75;2920801;-63
2024/03/17 00:51:02;;;;;;;4.00;2.75;;;;;;;7.05;100.00;98114.69;1225190;75;2920685;-64
2024/03/17 00:53:32;;;;;;;4.15;2.40;;;;;;;7.19;100.00;98113.41;1225206;75;2921991;-65
2024/03/17 00:56:05;;;;;;;3.50;2.40;;;;;;;7.13;100.00;98110.50;1165101;75;5354347;-64
2024/03/17 00:58:35;;;;;;;3.40;2.55;;;;;;;7.07;100.00;98106.06;1224947;75;2916949;-64
2024/03/17 01:01:11;;;;;;;3.15;2.45;;;;;;;7.10;100.00;98108.69;1194716;75;5250619;-62
2024/03/17 01:03:41;;;;;;;2.90;2.10;;;;;;;7.15;100.00;98124.44;1225593;75;2920163;-66
2024/03/17 01:06:14;;;;;;;5.35;2.55;;;;;;;6.79;100.00;98117.47;1200874;75;4816319;-63
2024/03/17 01:08:44;;;;;;;5.15;3.30;;;;;;;6.83;100.00;98117.34;1224520;75;2925966;-65
2024/03/17 01:11:19;;;;;;;4.85;3.50;;;;;;;6.92;100.00;98113.94;1225363;75;2919595;-64
2024/03/17 01:13:49;;;;;;;5.55;3.00;;;;;;;7.02;100.00;98113.59;1225265;75;2925005;-66
2024/03/17 01:16:25;;;;;;;3.05;2.40;;;;;;;7.15;100.00;98123.69;1225722;75;2916970;-63
2024/03/17 01:18:55;;;;;;;3.40;2.15;;;;;;;7.14;100.00;98131.06;1225867;67;2914346;-62
2024/03/17 01:21:28;;;;;;;2.75;2.20;;;;;;;7.19;100.00;98127.03;1225469;75;2908867;-63
2024/03/17 01:23:58;;;;;;;2.25;1.65;;;;;;;7.02;100.00;98119.06;1225389;75;2922745;-59
2024/03/17 01:26:31;;;;;;;3.30;2.00;;;;;;;6.91;100.00;98117.88;1225123;75;2923964;-61
2024/03/17 01:29:01;;;;;;;3.70;1.85;;;;;;;6.93;100.00;98118.97;1225060;75;2919523;-62
2024/03/17 01:31:37;;;;;;;2.80;1.45;;;;;;;7.05;100.00;98125.56;1225283;75;2916808;-62
2024/03/17 01:34:07;;;;;;;2.75;2.00;;;;;;;6.72;100.00;98117.69;1224914;75;2916305;-64
2024/03/17 01:36:40;;;;;;;3.05;1.95;;;;;;;6.88;100.00;98108.63;1225658;75;2919191;-63
2024/03/17 01:39:11;;;;;;;2.75;1.95;;;;;;;6.86;100.00;98107.56;1225184;75;2917951;-66
2024/03/17 01:41:45;;;;;;;2.05;1.60;;;;;;;6.72;100.00;98117.69;1224794;75;2924086;-63
2024/03/17 01:44:26;;;;;;;2.75;2.00;;;;;;;6.72;100.00;98120.41;1225484;75;2918256;-64
2024/03/17 01:47:03;;;;;;;3.00;2.25;;;;;;;6.65;100.00;98131.53;1225349;75;2931939;-63
2024/03/17 01:49:34;;;;;;;5.75;3.60;;;;;;;6.52;100.00;98131.53;1225958;75;2927451;-64
2024/03/17 01:52:07;;;;;;;4.75;2.95;;;;;;;6.74;100.00;98125.44;1225357;75;2926642;-64
2024/03/17 01:54:38;;;;;;;4.60;2.75;;;;;;;6.79;100.00;98130.31;1224479;75;2919718;-63
2024/03/17 01:57:11;;;;;;;3.35;2.45;;;;;;;6.70;100.00;98124.78;1224669;75;2923440;-63
2024/03/17 01:59:41;;;;;;;5.35;2.80;;;;;;;6.81;100.00;98125.19;1225702;75;2925023;-62
2024/03/17 02:02:17;;;;;;;3.40;2.40;;;;;;;6.66;100.00;98124.13;1224644;75;2928913;-61
2024/03/17 02:04:47;;;;;;;3.60;2.15;;;;;;;6.71;100.00;98123.56;1225431;75;2934438;-61
2024/03/17 02:07:20;;;;;;;3.90;2.45;;;;;;;6.80;100.00;98138.03;1223999;75;2914837;-62
2024/03/17 02:09:51;;;;;;;2.45;1.70;;;;;;;6.63;100.00;98130.44;1225290;75;2921637;-63
2024/03/17 02:12:24;;;;;;;2.35;1.80;;;;;;;6.70;100.00;98119.34;1225141;75;2920004;-63
2024/03/17 02:14:54;;;;;;;1.60;1.20;;;;;;;6.60;100.00;98124.66;1225834;75;2916691;-62
2024/03/17 02:17:30;;;;;;;2.00;1.35;;;;;;;6.60;100.00;98121.19;1225987;75;2913613;-64
2024/03/17 02:20:00;;;;;;;2.15;1.60;;;;;;;6.61;100.00;98114.53;1224341;75;2915651;-62
2024/03/17 02:22:35;;;;;;;2.30;1.70;;;;;;;6.50;100.00;98114.91;1224623;75;2909923;-61
2024/03/17 02:25:08;;;;;;;1.85;1.60;;;;;;;6.43;100.00;98119.81;1224880;75;2913734;-60
2024/03/17 02:27:41;;;;;;;1.70;1.50;;;;;;;6.43;100.00;98117.84;1224667;75;2948582;-62
2024/03/17 02:30:12;;;;;;;2.15;1.40;;;;;;;6.46;100.00;98118.91;1225624;75;2916654;-66
2024/03/17 02:32:45;;;;;;;1.45;1.15;;;;;;;6.45;100.00;98126.31;1226523;75;2913764;-65
2024/03/17 02:35:15;;;;;;;2.05;1.40;;;;;;;6.23;100.00;98126.22;1225055;75;2923066;-64
2024/03/17 02:37:51;;;;;;;1.90;1.25;;;;;;;6.21;100.00;98134.03;1225126;75;2922852;-65
2024/03/17 02:40:22;;;;;;;1.50;1.30;;;;;;;5.98;100.00;98132.38;1224329;75;2933257;-66
2024/03/17 02:42:55;;;;;;;2.95;1.70;;;;;;;5.76;100.00;98138.41;1225901;75;2912198;-63
2024/03/17 02:45:28;;;;;;;2.75;2.00;;;;;;;5.73;100.00;98144.69;1226056;75;2918384;-63
2024/03/17 02:48:00;;;;;;;4.40;1.90;;;;;;;5.83;100.00;98150.28;1223728;75;2914763;-64
2024/03/17 02:50:33;;;;;;;2.75;1.80;;;;;;;5.71;100.00;98147.06;1224335;75;2922724;-65
2024/03/17 02:53:09;;;;;;;2.80;1.80;;;;;;;5.97;100.00;98147.19;1224753;75;2922990;-61
2024/03/17 02:55:41;;;;;;;2.95;2.40;;;;;;;5.75;100.00;98145.03;1225330;75;2922799;-62
2024/03/17 02:58:14;;;;;;;2.40;1.80;;;;;;;5.91;100.00;98154.28;1224777;75;2914388;-63
2024/03/17 03:00:47;;;;;;;2.50;2.05;;;;;;;5.69;100.00;98146.00;1224783;75;2916549;-62
2024/03/17 03:03:20;;;;;;;4.00;2.40;;;;;;;5.34;100.00;98159.34;1225612;75;2919646;-62
2024/03/17 03:05:53;;;;;;;3.55;2.00;;;;;;;5.53;100.00;98157.66;1224559;75;2930575;-63
2024/03/17 03:08:28;;;;;;;2.65;1.80;;;;;;;5.36;100.00;98162.38;1225221;75;2913616;-62
2024/03/17 03:11:01;;;;;;;1.75;1.40;;;;;;;5.47;100.00;98149.28;1224306;75;2920541;-62
2024/03/17 03:13:35;;;;;;;1.80;1.30;;;;;;;5.49;100.00;98157.78;1224940;75;2917335;-62
2024/03/17 03:16:08;;;;;;;1.75;1.00;;;;;;;5.37;100.00;98149.56;1225541;75;2914613;-61
2024/03/17 03:18:41;;;;;;;3.25;1.75;;;;;;;5.24;100.00;98146.78;1224868;75;2922716;-62
2024/03/17 03:21:15;;;;;;;2.25;1.70;;;;;;;5.35;100.00;98141.84;1224681;75;2914730;-63
2024/03/17 03:23:51;;;;;;;1.50;1.40;;;;;;;5.41;100.00;98139.38;1224817;75;2943632;-63
2024/03/17 03:26:24;;;;;;;1.75;1.40;;;;;;;5.41;100.00;98139.38;1224912;75;2925573;-63
2024/03/17 03:28:57;;;;;;;1.75;1.35;;;;;;;5.41;100.00;98139.38;1225472;75;2917730;-63
2024/03/17 03:31:30;;;;;;;1.20;1.05;;;;;;;5.38;100.00;98145.66;1224615;75;2922843;-60
2024/03/17 03:34:03;;;;;;;1.40;0.95;;;;;;;5.22;100.00;98147.22;1225239;75;2917130;-65
2024/03/17 03:36:37;;;;;;;1.30;1.00;;;;;;;5.31;100.00;98147.38;1225679;75;2919886;-61
2024/03/17 03:39:13;;;;;;;1.05;0.85;;;;;;;5.43;100.00;98137.00;1225573;75;2921889;-63
2024/03/17 03:41:46;;;;;;;1.15;0.90;;;;;;;5.43;100.00;98137.75;1225519;75;2919004;-62
2024/03/17 03:44:19;;;;;;;1.20;1.00;;;;;;;5.22;100.00;98143.72;1225519;75;2921399;-65
2024/03/17 03:46:53;;;;;;;0.95;0.80;;;;;;;5.05;100.00;98143.78;1224868;75;2931025;-62
2024/03/17 03:49:26;;;;;;;1.00;0.80;;;;;;;5.03;100.00;98156.25;1224080;75;2922586;-63
2024/03/17 03:51:58;;;;;;;1.85;1.20;;;;;;;4.94;100.00;98159.56;1224185;75;2917402;-63
2024/03/17 03:54:34;;;;;;;1.55;1.20;;;;;;;4.74;100.00;98143.38;1224422;75;2930793;-61
2024/03/17 03:57:07;;;;;;;2.00;1.30;;;;;;;4.88;100.00;98148.47;1225246;75;2925373;-61
2024/03/17 03:59:40;;;;;;;2.75;1.40;;;;;;;5.02;100.00;98155.47;1224073;75;2938436;-67
2024/03/17 04:02:13;;;;;;;1.70;1.30;;;;;;;5.00;100.00;98157.84;1221200;75;3110047;-64
2024/03/17 04:04:47;;;;;;;2.50;1.25;;;;;;;5.07;100.00;98159.63;1224709;75;2947470;-62
2024/03/17 04:07:20;;;;;;;2.30;1.90;;;;;;;4.79;100.00;98155.69;1225070;75;2915399;-63
2024/03/17 04:09:56;;;;;;;3.00;2.10;;;;;;;4.97;100.00;98155.22;1224257;75;2922668;-63
2024/03/17 04:12:30;;;;;;;2.45;1.70;;;;;;;5.10;100.00;98158.78;1224486;75;2956788;-63
2024/03/17 04:15:05;;;;;;;2.75;1.70;;;;;;;5.09;100.00;98168.09;1223104;75;2923977;-63
2024/03/17 04:17:39;;;;;;;2.05;1.40;;;;;;;4.96;100.00;98151.75;1223678;75;2926555;-62
2024/03/17 04:20:13;;;;;;;1.20;1.10;;;;;;;5.04;100.00;98161.25;1225018;75;2922590;-62
2024/03/17 04:22:48;;;;;;;1.25;0.95;;;;;;;4.99;100.00;98161.75;1224670;75;2912233;-63
2024/03/17 04:25:23;;;;;;;1.10;1.00;;;;;;;4.81;100.00;98156.78;1224279;75;2921419;-59
2024/03/17 04:27:56;;;;;;;2.45;1.50;;;;;;;4.61;100.00;98167.69;1224191;75;2921110;-64
2024/03/17 04:30:29;;;;;;;1.15;1.00;;;;;;;4.59;100.00;98167.34;1225092;75;2922354;-64
2024/03/17 04:33:03;;;;;;;1.70;1.10;;;;;;;4.76;100.00;98172.78;1224833;75;2943362;-60
2024/03/17 04:35:39;;;;;;;0.80;0.80;;;;;;;4.79;100.00;98175.41;1224340;75;2929353;-64
2024/03/17 04:38:14;;;;;;;2.35;0.70;;;;;;;4.74;100.00;98173.22;1224336;75;2921639;-63
2024/03/17 04:40:50;;;;;;;0.70;0.60;;;;;;;4.73;100.00;98177.09;1224025;75;2943372;-62
2024/03/17 04:43:23;;;;;;;0.60;0.60;;;;;;;4.67;100.00;98189.66;1223571;75;2929296;-64
2024/03/17 04:46:07;;;;;;;0.75;0.65;;;;;;;4.72;100.00;98182.97;1224457;75;2922369;-62
2024/03/17 04:48:40;;;;;;;1.15;0.80;;;;;;;4.53;100.00;98196.16;1224400;75;2924227;-64
2024/03/17 04:51:18;;;;;;;0.95;0.80;;;;;;;4.57;100.00;98191.44;1224991;75;2923498;-66
2024/03/17 04:53:51;;;;;;;0.70;0.60;;;;;;;4.80;100.00;98192.44;1222168;75;2940629;-62
2024/03/17 04:56:27;;;;;;;0.70;0.70;;;;;;;4.81;100.00;98191.25;1195638;75;5279514;-64
2024/03/17 04:59:01;;;;;;;0.60;0.60;;;;;;;4.78;100.00;98203.72;1224699;75;2922946;-64
2024/03/17 05:01:36;;;;;;;0.80;0.60;;;;;;;4.77;100.00;98202.19;1224741;75;2918767;-61
2024/03/17 05:04:11;;;;;;;0.70;0.65;;;;;;;4.88;100.00;98204.66;1224237;75;2923924;-64
2024/03/17 05:06:46;;;;;;;0.70;0.65;;;;;;;4.89;100.00;98211.63;1224417;75;2913936;-63
2024/03/17 05:09:19;;;;;;;0.90;0.70;;;;;;;4.90;100.00;98207.72;1226019;75;2937892;-62
2024/03/17 05:11:55;;;;;;;1.00;0.75;;;;;;;4.57;100.00;98215.84;1224631;75;2921670;-61
2024/03/17 05:14:27;;;;;;;1.30;1.20;;;;;;;4.79;100.00;98218.81;1224603;75;2918251;-61
2024/03/17 05:17:00;;;;;;;1.00;0.90;;;;;;;4.64;100.00;98229.22;1224631;75;2924354;-61
2024/03/17 05:19:34;;;;;;;3.20;2.00;;;;;;;4.68;100.00;98227.19;1225011;75;2922096;-64
2024/03/17 05:22:07;;;;;;;1.85;1.75;;;;;;;4.82;100.00;98219.91;1225119;75;2913542;-64
2024/03/17 05:24:40;;;;;;;2.70;2.30;;;;;;;4.81;100.00;98213.75;1224246;75;2914408;-64
2024/03/17 05:27:15;;;;;;;1.95;1.75;;;;;;;4.94;100.00;98219.25;1224817;75;2915067;-64
2024/03/17 05:29:51;;;;;;;2.20;2.00;;;;;;;4.77;100.00;98229.31;1224557;75;2915309;-61
2024/03/17 05:32:24;;;;;;;2.55;2.20;;;;;;;4.75;100.00;98226.25;1225205;75;2916564;-62
2024/03/17 05:34:59;;;;;;;2.85;2.10;;;;;;;4.74;100.00;98216.63;1225581;75;2918318;-62
2024/03/17 05:37:32;;;;;;;3.75;1.60;;;;;;;4.83;100.00;98216.00;1225482;75;2942342;-63
2024/03/17 05:40:04;;;;;;;1.95;1.60;;;;;;;4.91;100.00;98228.25;1225355;75;2911469;-63
2024/03/17 05:42:40;;;;;;;1.70;1.40;;;;;;;4.82;100.00;98234.25;1224412;75;2923083;-63
2024/03/17 05:45:13;;;;;;;2.90;2.45;;;;;;;4.48;100.00;98231.91;1225378;75;2914724;-65
2024/03/17 05:47:46;;;;;;;3.40;2.65;;;;;;;4.70;100.00;98227.53;1225011;75;2921603;-64
2024/03/17 05:50:19;;;;;;;2.55;2.20;;;;;;;4.83;100.00;98224.91;1225099;75;2930779;-62
2024/03/17 05:52:52;;;;;;;2.05;1.70;;;;;;;4.84;100.00;98231.88;1225549;75;2921504;-63
2024/03/17 05:55:25;;;;;;;2.00;1.65;;;;;;;4.98;100.00;98232.72;1225019;75;2915835;-62
2024/03/17 05:58:01;;;;;;;1.95;1.75;;;;;;;4.91;100.00;98233.66;1225503;75;2917407;-65
2024/03/17 06:00:34;;;;;;;1.95;1.40;;;;;;;5.01;100.00;98223.75;1224773;75;2923266;-64
2024/03/17 06:03:08;;;;;;;1.45;1.35;;;;;;;5.01;100.00;98221.03;1225818;75;2914031;-64
2024/03/17 06:05:44;;;;;;;2.10;1.50;;;;;;;5.03;100.00;98230.28;1225095;75;2916397;-62
2024/03/17 06:08:17;;;;;;;1.50;1.35;;;;;;;5.01;100.00;98227.22;1224976;75;2914489;-62
2024/03/17 06:10:52;;;;;;;2.55;2.10;;;;;;;5.07;100.00;98227.47;1224471;75;2933273;-64
2024/03/17 06:13:28;;;;;;;2.15;1.95;;;;;;;4.98;100.00;98233.50;1225659;75;2948014;-63
2024/03/17 06:16:01;;;;;;;2.15;1.90;;;;;;;5.08;100.00;98229.00;1224812;75;2921643;-62
2024/03/17 06:18:34;;;;;;;3.00;2.30;;;;;;;5.19;100.00;98242.31;1224645;75;2911031;-64
2024/03/17 06:21:10;;;;;;;2.45;1.95;;;;;;;5.17;100.00;98247.38;1224939;75;2932334;-64
2024/03/17 06:23:43;;;;;;;2.15;1.80;;;;;;;5.34;100.00;98251.66;1224485;75;2918882;-64
2024/03/17 06:26:17;;;;;;;1.60;1.20;;;;;;;5.41;100.00;98251.47;1225305;75;2915894;-64
2024/03/17 06:28:52;;;;;;;3.85;1.60;;;;;;;5.65;100.00;98254.75;1224704;75;2940141;-62
2024/03/17 06:31:25;;;;;;;2.70;1.60;;;;;;;5.95;100.00;98256.28;1224594;75;2920664;-62
2024/03/17 06:33:58;;;;;;;1.75;1.50;;;;;;;6.20;100.00;98252.13;1226256;75;2922897;-61
2024/03/17 06:36:31;;;;;;;2.35;1.60;;;;;;;6.39;100.00;98253.16;1224910;75;2915225;-64
2024/03/17 06:39:04;;;;;;;3.25;1.80;;;;;;;6.60;100.00;98265.38;1225103;75;2914703;-62
2024/03/17 06:41:38;;;;;;;2.45;1.85;;;;;;;6.81;100.00;98261.25;1225630;75;2925164;-63
2024/03/17 06:44:13;;;;;;;3.30;2.25;;;;;;;12.64;97.70;98251.00;1224315;75;2928396;-64
2024/03/17 06:46:48;;;;;;;2.70;2.20;;;;;;;15.43;70.51;98258.50;1224931;75;2912234;-66
2024/03/17 06:49:20;;;;;;;1.70;1.60;;;;;;;18.13;59.97;98257.75;1224498;75;2920163;-64
2024/03/17 06:51:53;;;;;;;2.05;1.30;;;;;;;19.64;55.01;98258.44;1224544;75;2918765;-66
2024/03/17 06:54:26;;;;;;;1.10;0.95;;;;;;;22.31;48.03;98251.41;1193471;75;5441519;-63
2024/03/17 06:56:59;;;;;;;1.30;1.05;;;;;;;23.02;46.33;98249.50;1224467;75;2918050;-64
2024/03/17 06:59:37;;;;;;;1.20;0.75;;;;;;;25.65;41.69;98249.53;1224442;75;2963260;-63
2024/03/17 07:02:10;;;;;;;1.10;1.00;;;;;;;24.36;40.98;98249.00;1224330;75;2922425;-65
2024/03/17 07:04:43;;;;;;;1.20;0.95;;;;;;;25.38;39.91;98243.66;1224962;75;2924545;-65
2024/03/17 07:07:16;;;;;;;3.90;2.80;;;;;;;24.32;41.49;98252.19;1224164;75;2942469;-67
2024/03/17 07:09:50;;;;;;;3.25;1.95;;;;;;;18.46;51.99;98259.56;1224058;75;2919404;-65
2024/03/17 07:12:23;;;;;;;2.75;2.00;;;;;;;16.18;60.03;98268.09;1224235;75;2922386;-63
2024/03/17 07:14:59;;;;;;;2.50;1.70;;;;;;;12.48;74.27;98263.22;1221312;83;2990197;-63
2024/03/17 07:17:32;;;;;;;2.45;1.40;;;;;;;11.67;85.22;98264.22;1223495;75;2904243;-64
2024/03/17 07:20:08;;;;;;;2.15;1.25;;;;;;;11.43;88.69;98258.75;1223738;75;2925726;-64
2024/03/17 07:22:41;;;;;;;1.80;0.70;;;;;;;12.15;84.00;98258.69;1224389;75;2936902;-63
2024/03/17 07:25:14;;;;;;;1.00;0.90;;;;;;;11.86;85.39;98251.88;1224516;75;2941717;-65
2024/03/17 07:27:47;;;;;;;1.15;0.85;;;;;;;11.60;85.99;98262.59;1224753;75;2920262;-65
2024/03/17 07:30:22;;;;;;;1.75;0.90;;;;;;;11.43;89.80;98264.22;1224314;75;2932272;-65
2024/03/17 07:32:55;;;;;;;2.10;1.20;;;;;;;10.42;100.00;98262.66;1224528;75;2919248;-63
2024/03/17 07:35:28;;;;;;;1.35;0.80;;;;;;;11.36;93.45;98256.34;1224199;75;2923862;-63
2024/03/17 07:38:01;;;;;;;1.40;1.00;;;;;;;11.11;94.63;98246.56;1224959;67;2937166;-62
2024/03/17 07:40:34;;;;;;;1.55;1.05;;;;;;;11.13;95.68;98246.88;1225212;75;2922398;-62
2024/03/17 07:43:07;;;;;;;1.55;0.75;;;;;;;11.16;99.08;98259.63;1225998;75;2916444;-65
2024/03/17 07:45:45;;;;;;;1.55;1.15;;;;;;;11.30;94.73;98237.03;1224373;75;2918929;-66
2024/03/17 07:48:18;;;;;;;1.95;1.05;;;;;;;11.16;100.00;98240.47;1225527;75;2910461;-65
2024/03/17 07:50:58;;;;;;;0.90;0.70;;;;;;;11.21;96.17;98237.09;1225116;75;2917642;-64
2024/03/17 07:53:31;;;;;;;3.95;2.75;;;;;;;11.09;100.00;98241.59;1224188;75;2926229;-63
2024/03/17 07:56:06;;;;;;;1.80;1.30;;;;;;;10.78;100.00;98233.66;1223053;75;2927001;-63
2024/03/17 07:58:42;;;;;;;1.40;1.10;;;;;;;11.06;100.00;98231.53;1225030;75;2922930;-64
2024/03/17 08:01:19;;;;;;;1.90;1.10;;;;;;;10.99;100.00;98245.56;1225368;75;2917544;-66
2024/03/17 08:03:55;;;;;;;1.95;1.05;;;;;;;11.18;100.00;98238.75;1224627;75;2919318;-64
2024/03/17 08:06:28;;;;;;;1.65;1.15;;;;;;;10.80;100.00;98248.41;1224162;75;2920399;-63
2024/03/17 08:09:01;;;;;;;3.70;1.05;;;;;;;11.31;95.32;98238.56;1223574;75;2921459;-64
2024/03/17 08:11:34;;;;;;;1.30;1.10;;;;;;;11.89;89.07;98231.00;1223068;83;2922829;-65
2024/03/17 08:14:07;;;;;;;0.90;0.80;;;;;;;12.02;87.82;98230.72;1223498;75;2929659;-63
2024/03/17 08:16:42;;;;;;;1.25;0.80;;;;;;;12.34;86.77;98229.81;1223451;75;2928490;-64
2024/03/17 08:19:15;;;;;;;1.75;1.00;;;;;;;12.20;87.07;98229.81;1222862;75;2945556;-62
2024/03/17 08:21:48;;;;;;;1.05;0.90;;;;;;;12.46;80.21;98225.28;1223784;75;2930752;-63
2024/03/17 08:24:21;;;;;;;1.10;0.65;;;;;;;13.07;77.58;98223.94;1223174;75;2936024;-62
2024/03/17 08:26:54;;;;;;;2.55;1.05;;;;;;;13.08;76.93;98217.19;1222539;75;2935656;-67
2024/03/17 08:29:27;;;;;;;1.10;0.90;;;;;;;13.41;75.19;98211.41;1224164;75;2916420;-65
2024/03/17 08:32:03;;;;;;;1.00;0.70;;;;;;;13.82;71.75;98217.63;1223391;75;2916207;-64
2024/03/17 08:34:36;;;;;;;1.85;0.75;;;;;;;14.95;69.69;98217.88;1224158;75;2912019;-64
2024/03/17 08:37:09;;;;;;;1.70;0.65;;;;;;;16.84;63.50;98215.41;1223274;75;2947875;-65
2024/03/17 08:39:41;;;;;;;0.75;0.65;;;;;;;17.54;58.32;98209.94;1223397;75;2946724;-63
2024/03/17 08:42:14;;;;;;;3.40;2.60;;;;;;;18.39;58.31;98212.97;1194575;75;5286192;-66
2024/03/17 08:44:52;;;;;;;4.80;3.00;;;;;;;19.07;53.51;98213.91;1223993;75;2894662;-66
2024/03/17 08:47:27;;;;;;;1.30;0.90;;;;;;;18.71;53.71;98208.44;1224113;75;2910510;-64
2024/03/17 08:50:03;;;;;;;0.40;0.30;;;;;;;18.16;50.58;98202.06;1223257;75;2919189;-65
2024/03/17 08:52:37;;;;;;;0.85;0.40;;;;;;;18.53;52.40;98198.75;1224802;75;2919058;-66
2024/03/17 08:55:14;;;;;;;0.40;0.30;;;;;;;18.14;50.88;98206.63;1223423;75;2923175;-69
2024/03/17 08:57:46;;;;;;;1.05;0.45;;;;;;;18.74;51.77;98192.78;1224592;75;2882551;-65
2024/03/17 09:00:21;;;;;;;0.40;0.40;;;;;;;18.20;50.96;98191.44;1222194;75;2920388;-67
2024/03/17 09:02:56;;;;;;;2.00;0.25;;;;;;;19.21;49.25;98189.78;1195082;75;5166229;-67
2024/03/17 09:05:29;;;;;;;0.30;0.30;;;;;;;19.52;48.90;98188.41;1220240;75;2917768;-63
2024/03/17 09:08:02;;;;;;;0.50;0.30;;;;;;;18.80;48.56;98193.50;1208173;75;4069169;-64
2024/03/17 09:10:35;;;;;;;0.60;0.40;;;;;;;18.77;48.96;98188.25;1224750;75;2924861;-65
2024/03/17 09:13:10;;;;;;;0.85;0.40;;;;;;;19.27;49.59;98184.94;1224919;75;2926562;-65
2024/03/17 09:15:43;;;;;;;0.50;0.35;;;;;;;19.37;51.12;98190.88;1192789;75;5460775;-67
2024/03/17 09:18:18;;;;;;;0.60;0.35;;;;;;;19.44;46.29;98181.22;1224572;75;2977815;-65
2024/03/17 09:21:02;;;;;;;0.30;0.20;;;;;;;18.84;47.98;98177.31;1223809;75;2937383;-64
2024/03/17 09:23:36;;;;;;;0.25;0.25;;;;;;;20.91;46.46;98185.34;1226406;75;2856287;-66
2024/03/17 09:26:14;;;;;;;0.35;0.35;;;;;;;19.99;46.14;98171.38;1224317;75;2919865;-71
2024/03/17 09:28:49;;;;;;;0.30;0.20;;;;;;;20.18;45.56;98167.84;1224676;75;2920372;-67
2024/03/17 09:31:22;;;;;;;4.55;3.30;;;;;;;18.07;47.15;98163.59;1223961;75;2918885;-65
2024/03/17 09:33:57;;;;;;;2.15;0.40;;;;;;;17.38;46.87;98159.66;1224764;75;2919810;-66
2024/03/17 09:36:31;;;;;;;3.15;2.50;;;;;;;18.16;47.17;98160.50;1224246;75;2924079;-64
2024/03/17 09:39:05;;;;;;;0.50;0.50;;;;;;;17.77;45.76;98153.16;1224223;75;2939239;-63
2024/03/17 09:41:38;;;;;;;0.90;0.40;;;;;;;18.82;46.96;98157.66;1225477;75;2932846;-66
2024/03/17 09:44:16;;;;;;;0.80;0.20;;;;;;;18.36;44.22;98155.81;1226118;75;2927531;-63
2024/03/17 09:46:48;;;;;;;0.10;0.10;;;;;;;18.40;45.03;98159.81;1225092;75;2923899;-67
2024/03/17 09:49:24;;;;;;;0.40;0.20;;;;;;;18.77;45.15;98155.69;1225021;75;2914397;-66
2024/03/17 09:52:01;;;;;;;0.20;0.20;;;;;;;18.87;44.37;98151.31;1225088;75;2917699;-66
2024/03/17 09:54:35;;;;;;;0.85;0.20;;;;;;;19.27;44.49;98148.09;1225909;75;2918395;-68
2024/03/17 09:57:20;;;;;;;0.35;0.20;;;;;;;19.00;44.21;98152.69;1226128;75;2912281;-66
2024/03/17 09:59:56;;;;;;;0.10;0.10;;;;;;;19.56;42.97;98154.78;1224264;75;2914640;-70
2024/03/17 10:02:29;;;;;;;0.10;0.10;;;;;;;19.92;41.62;98149.78;1223953;75;2917681;-66
2024/03/17 10:05:04;;;;;;;0.20;0.10;;;;;;;19.75;42.06;98150.00;1224632;75;2910915;-66
2024/03/17 10:07:42;;;;;;;0.20;0.10;;;;;;;18.63;43.70;98149.25;1223011;75;2923261;-68
2024/03/17 10:10:16;;;;;;;;;;;;;;;19.22;44.33;98143.34;1225349;75;2920937;-65
2024/03/17 10:12:54;;;;;;;0.30;0.10;;;;;;;18.61;43.82;98142.72;1225294;75;2922670;-66
2024/03/17 10:15:27;;;;;;;0.60;0.20;;;;;;;19.21;43.23;98139.06;1223404;83;2922053;-67
2024/03/17 10:18:00;;;;;;;0.20;0.20;;;;;;;19.46;42.02;98140.53;1219602;75;3040887;-64
2024/03/17 10:20:36;;;;;;;0.40;0.40;;;;;;;19.57;42.76;98132.03;1224789;75;2923128;-67
2024/03/17 10:23:12;;;;;;;0.10;0.10;;;;;;;20.36;41.63;98132.91;1225616;75;2924686;-63
2024/03/17 10:25:44;;;;;;;0.40;0.10;;;;;;;21.69;40.24;98110.59;1225217;75;2918392;-69
2024/03/17 10:28:20;;;;;;;0.35;0.30;;;;;;;19.63;41.86;98115.31;1224843;75;2915552;-66
2024/03/17 10:31:03;;;;;;;0.20;0.10;;;;;;;20.04;42.68;98121.81;1224605;75;2917208;-68
2024/03/17 10:33:36;;;;;;;1.55;0.30;;;;;;;19.39;44.02;98120.94;1225065;75;2924503;-63
2024/03/17 10:36:21;;;;;;;1.20;0.95;;;;;;;18.75;44.39;98111.06;1224391;75;2916672;-66
2024/03/17 10:38:56;;;;;;;1.20;0.70;;;;;;;17.93;46.20;98109.28;1224567;75;2922219;-65
2024/03/17 10:41:33;;;;;;;0.75;0.40;;;;;;;18.82;45.11;98104.22;1223608;75;2922267;-64
2024/03/17 10:44:06;;;;;;;0.50;0.30;;;;;;;18.58;44.24;98105.69;1224783;75;2921685;-66
2024/03/17 10:46:39;;;;;;;0.50;0.15;;;;;;;19.24;44.71;98104.72;1225138;75;2919080;-68
2024/03/17 10:49:15;;;;;;;0.40;0.30;;;;;;;19.49;44.36;98106.16;1224182;75;2915722;-65
2024/03/17 10:51:56;;;;;;;0.55;0.40;;;;;;;19.71;44.55;98107.88;1224474;75;2932136;-66
2024/03/17 10:54:30;;;;;;;5.05;3.75;;;;;;;19.55;44.73;98095.72;1225869;75;2916095;-65
2024/03/17 10:57:22;;;;;;;2.90;1.10;;;;;;;19.48;45.70;98098.34;1225209;75;2915120;-65
2024/03/17 10:59:55;;;;;;;0.85;0.50;;;;;;;19.34;45.99;98094.75;1225049;75;2918562;-65
2024/03/17 11:02:32;;;;;;;0.80;0.35;;;;;;;19.73;44.82;98093.47;1224828;75;2931355;-67
2024/03/17 11:05:08;;;;;;;0.65;0.40;;;;;;;19.28;43.82;98094.81;1225533;75;2912812;-65
2024/03/17 11:07:46;;;;;;;0.30;0.20;;;;;;;19.44;45.86;98087.56;1223899;75;2934771;-70
2024/03/17 11:10:26;;;;;;;0.30;0.30;;;;;;;19.92;43.95;98082.34;1225955;75;2918750;-69
2024/03/17 11:13:01;;;;;;;0.65;0.30;;;;;;;21.09;43.08;98075.16;1224829;75;2912475;-70
2024/03/17 11:15:41;;;;;;;0.30;0.20;;;;;;;21.61;41.52;98071.53;1224428;75;2923434;-65
2024/03/17 11:18:34;;;;;;;0.40;0.30;;;;;;;20.04;42.16;98072.53;1224644;75;2914244;-65
2024/03/17 11:21:12;;;;;;;1.45;0.30;;;;;;;19.48;43.38;98070.56;1224585;75;2920515;-69
2024/03/17 11:23:57;;;;;;;0.50;0.20;;;;;;;18.97;45.35;98068.47;1223557;75;2918340;-66
2024/03/17 11:26:38;;;;;;;0.70;0.50;;;;;;;19.83;43.26;98072.34;1224257;75;2929308;-65
2024/03/17 11:29:32;;;;;;;0.70;0.30;;;;;;;19.91;43.55;98067.66;1223958;75;2926582;-68
2024/03/17 11:32:27;;;;;;;0.30;0.20;;;;;;;19.37;43.36;98068.72;1224542;75;2922281;-64
2024/03/17 11:35:26;;;;;;;0.80;0.30;;;;;;;18.82;44.56;98059.84;1224234;75;2945950;-64
2024/03/17 11:37:57;;;;;;;0.90;0.20;;;;;;;18.50;45.20;98049.31;1224319;75;2931013;-64
2024/03/17 11:40:30;;;;;;;0.10;0.10;;;;;;;19.41;44.88;98048.97;1223717;75;2927997;-67
2024/03/17 11:43:05;;;;;;;0.20;0.20;;;;;;;19.40;43.47;98051.00;1224351;75;2937728;-70
2024/03/17 11:45:38;;;;;;;1.40;0.30;;;;;;;19.03;44.46;98046.97;1224311;75;2930894;-67
2024/03/17 11:48:17;;;;;;;0.55;0.30;;;;;;;19.23;44.00;98040.13;1223925;75;2939371;-68
2024/03/17 11:50:50;;;;;;;0.20;0.20;;;;;;;18.77;44.95;98044.75;1223215;75;2935583;-69